Time,TemperatureF,DewpointF,PressureIn,WindDirection,WindDirectionDegrees,WindSpeedMPH,WindSpeedGustMPH,Humidity,HourlyPrecipIn,Conditions,Clouds,dailyrainin,SoftwareType,DateUTC
2013-04-06 00:03:00,32.0,12.0,-100.00,NNW,340,16.0,29.0,42,0.00,,,-99.99,,2013-04-06 04:03:00,
2013-04-06 00:14:00,31.0,11.0,-100.00,NNW,340,12.0,24.0,42,0.00,,,-99.99,,2013-04-06 04:14:00,
2013-04-06 00:23:00,31.0,11.0,-100.00,NW,320,11.0,26.0,42,0.00,,,-99.99,,2013-04-06 04:23:00,
2013-04-06 00:33:00,31.0,11.0,-100.00,NNW,340,11.0,26.0,43,0.00,,,-99.99,,2013-04-06 04:33:00,
2013-04-06 00:42:00,31.0,11.0,-100.00,NNW,340,12.0,24.0,43,0.00,,,-99.99,,2013-04-06 04:42:00,
2013-04-06 00:52:00,30.0,11.0,-100.00,North,350,12.0,24.0,43,0.00,,,-99.99,,2013-04-06 04:52:00,
2013-04-06 01:02:00,30.0,10.0,-100.00,NNW,335,10.0,25.0,43,0.00,,,-99.99,,2013-04-06 05:02:00,
2013-04-06 01:13:00,30.0,10.0,-100.00,NNW,340,9.0,22.0,43,0.00,,,-99.99,,2013-04-06 05:13:00,
2013-04-06 01:22:00,30.0,9.0,-100.00,NW,310,10.0,23.0,40,0.00,,,-99.99,,2013-04-06 05:22:00,
2013-04-06 01:32:00,29.0,9.0,-100.00,NNW,340,11.0,20.0,40,0.00,,,-99.99,,2013-04-06 05:32:00,
2013-04-06 01:42:00,29.0,9.0,-100.00,NNW,340,9.0,17.0,42,0.00,,,-99.99,,2013-04-06 05:42:00,
2013-04-06 01:52:00,29.0,9.0,-100.00,NNW,340,12.0,27.0,42,0.00,,,-99.99,,2013-04-06 05:52:00,
2013-04-06 02:03:00,29.0,9.0,-100.00,NNW,330,14.0,22.0,41,0.00,,,-99.99,,2013-04-06 06:03:00,
2013-04-06 02:12:00,29.0,8.0,-100.00,NNW,340,12.0,18.0,41,0.00,,,-99.99,,2013-04-06 06:12:00,
2013-04-06 02:22:00,29.0,9.0,-100.00,NNW,340,9.0,20.0,42,0.00,,,-99.99,,2013-04-06 06:22:00,
2013-04-06 02:32:00,29.0,9.0,-100.00,NNW,340,7.0,15.0,42,0.00,,,-99.99,,2013-04-06 06:32:00,
2013-04-06 02:42:00,29.0,9.0,-100.00,NW,320,6.0,12.0,44,0.00,,,-99.99,,2013-04-06 06:42:00,
2013-04-06 02:52:00,29.0,7.0,-100.00,NNW,340,12.0,27.0,38,0.00,,,-99.99,,2013-04-06 06:52:00,
2013-04-06 03:03:00,28.0,6.0,-100.00,NNW,345,9.0,22.0,38,0.00,,,-99.99,,2013-04-06 07:03:00,
2013-04-06 03:12:00,28.0,5.0,-100.00,NNW,345,11.0,28.0,36,0.00,,,-99.99,,2013-04-06 07:12:00,
2013-04-06 03:22:00,28.0,5.0,-100.00,NNW,340,11.0,25.0,37,0.00,,,-99.99,,2013-04-06 07:22:00,
2013-04-06 03:33:00,28.0,4.0,-100.00,NW,325,11.0,22.0,35,0.00,,,-99.99,,2013-04-06 07:33:00,
2013-04-06 03:43:00,27.0,3.0,-100.00,NW,320,16.0,27.0,34,0.00,,,-99.99,,2013-04-06 07:43:00,
2013-04-06 03:52:00,27.0,3.0,-100.00,NNW,335,9.0,28.0,34,0.00,,,-99.99,,2013-04-06 07:52:00,
2013-04-06 04:02:00,27.0,2.0,-100.00,NNW,345,13.0,22.0,33,0.00,,,-99.99,,2013-04-06 08:02:00,
2013-04-06 04:13:00,26.0,2.0,-100.00,NNW,340,12.0,26.0,33,0.00,,,-99.99,,2013-04-06 08:13:00,
2013-04-06 04:22:00,26.0,2.0,-100.00,NNW,340,12.0,23.0,34,0.00,,,-99.99,,2013-04-06 08:22:00,
2013-04-06 04:32:00,26.0,2.0,-100.00,NNW,330,16.0,26.0,34,0.00,,,-99.99,,2013-04-06 08:32:00,
2013-04-06 04:42:00,26.0,2.0,-100.00,NNW,340,12.0,26.0,35,0.00,,,-99.99,,2013-04-06 08:42:00,
2013-04-06 04:52:00,26.0,3.0,-100.00,NNW,345,10.0,22.0,36,0.00,,,-99.99,,2013-04-06 08:52:00,
2013-04-06 05:02:00,26.0,3.0,-100.00,NNW,340,9.0,17.0,37,0.00,,,-99.99,,2013-04-06 09:02:00,
2013-04-06 05:12:00,25.0,3.0,-100.00,NNW,335,9.0,17.0,37,0.00,,,-99.99,,2013-04-06 09:12:00,
2013-04-06 05:22:00,25.0,3.0,-100.00,NNW,345,11.0,21.0,37,0.00,,,-99.99,,2013-04-06 09:22:00,
2013-04-06 05:33:00,25.0,3.0,-100.00,North,0,9.0,26.0,37,0.00,,,-99.99,,2013-04-06 09:33:00,
2013-04-06 05:43:00,25.0,3.0,-100.00,NNW,330,7.0,20.0,37,0.00,,,-99.99,,2013-04-06 09:43:00,
2013-04-06 05:53:00,24.0,12.0,-100.00,NW,315,14.0,21.0,58,0.04,,,-99.99,,2013-04-06 09:53:00,
2013-04-06 06:03:00,24.0,12.0,-100.00,NNW,340,15.0,23.0,60,0.06,,,-99.99,,2013-04-06 10:03:00,
2013-04-06 06:13:00,23.0,11.0,-100.00,NNW,345,15.0,27.0,59,0.00,,,-99.99,,2013-04-06 10:13:00,
2013-04-06 06:23:00,23.0,11.0,-100.00,NNW,335,9.0,21.0,59,0.00,,,-99.99,,2013-04-06 10:23:00,
2013-04-06 06:33:00,23.0,9.0,-100.00,NNW,335,14.0,26.0,54,0.00,,,-99.99,,2013-04-06 10:33:00,
2013-04-06 06:42:00,22.0,7.0,-100.00,NNW,340,12.0,27.0,50,0.00,,,-99.99,,2013-04-06 10:42:00,
2013-04-06 06:52:00,23.0,6.0,-100.00,NNW,345,11.0,20.0,47,0.00,,,-99.99,,2013-04-06 10:52:00,
2013-04-06 07:02:00,22.0,5.0,-100.00,NNW,340,11.0,22.0,46,0.00,,,-99.99,,2013-04-06 11:02:00,
2013-04-06 07:12:00,22.0,4.0,-100.00,NNW,345,10.0,17.0,44,0.00,,,-99.99,,2013-04-06 11:12:00,
2013-04-06 07:23:00,23.0,3.0,-100.00,NNW,340,16.0,26.0,41,0.00,,,-99.99,,2013-04-06 11:23:00,
2013-04-06 07:33:00,23.0,2.0,-100.00,North,350,12.0,26.0,40,0.00,,,-99.99,,2013-04-06 11:33:00,
2013-04-06 07:43:00,23.0,2.0,-100.00,NW,325,7.0,24.0,38,0.00,,,-99.99,,2013-04-06 11:43:00,
2013-04-06 07:52:00,23.0,1.0,-100.00,NNW,345,9.0,16.0,37,0.00,,,-99.99,,2013-04-06 11:52:00,
2013-04-06 08:02:00,24.0,-1.0,-100.00,NNW,340,14.0,21.0,34,0.00,,,-99.99,,2013-04-06 12:02:00,
2013-04-06 08:12:00,24.0,0.0,-100.00,NNW,340,7.0,24.0,34,0.00,,,-99.99,,2013-04-06 12:12:00,
2013-04-06 08:22:00,25.0,1.0,-100.00,NNW,330,9.0,18.0,34,0.00,,,-99.99,,2013-04-06 12:22:00,
2013-04-06 08:33:00,25.0,3.0,-100.00,NNW,345,6.0,17.0,38,0.00,,,-99.99,,2013-04-06 12:33:00,
2013-04-06 08:43:00,25.0,2.0,-100.00,NNW,345,6.0,17.0,36,0.00,,,-99.99,,2013-04-06 12:43:00,
2013-04-06 08:52:00,25.0,1.0,-100.00,North,-999,-999.0,-999.0,34,0.00,,,-99.99,,2013-04-06 12:52:00,
2013-04-06 09:03:00,25.0,1.0,-100.00,NNW,335,14.0,21.0,34,0.00,,,-99.99,,2013-04-06 13:03:00,
2013-04-06 09:13:00,25.0,-1.0,-100.00,NNW,340,14.0,28.0,31,0.00,,,-99.99,,2013-04-06 13:13:00,
2013-04-06 09:24:00,26.0,-1.0,-100.00,NNW,340,12.0,24.0,30,0.00,,,-99.99,,2013-04-06 13:24:00,
2013-04-06 09:32:00,25.0,-1.0,-100.00,NNW,340,16.0,29.0,30,0.00,,,-99.99,,2013-04-06 13:32:00,
2013-04-06 09:43:00,26.0,-1.0,-100.00,NNW,340,13.0,27.0,30,0.00,,,-99.99,,2013-04-06 13:43:00,
2013-04-06 09:52:00,26.0,-2.0,-100.00,NNW,340,11.0,26.0,29,0.00,,,-99.99,,2013-04-06 13:52:00,
2013-04-06 10:04:00,27.0,-1.0,-100.00,NNW,335,12.0,25.0,29,0.00,,,-99.99,,2013-04-06 14:04:00,
2013-04-06 10:12:00,27.0,-1.0,-100.00,North,350,12.0,22.0,28,0.00,,,-99.99,,2013-04-06 14:12:00,
2013-04-06 10:22:00,28.0,-1.0,-100.00,NNW,340,11.0,26.0,28,0.00,,,-99.99,,2013-04-06 14:22:00,
2013-04-06 10:33:00,27.0,-1.0,-100.00,NNW,340,10.0,24.0,27,0.00,,,-99.99,,2013-04-06 14:33:00,
2013-04-06 10:42:00,28.0,-1.0,-100.00,NNW,335,14.0,27.0,27,0.00,,,-99.99,,2013-04-06 14:42:00,
2013-04-06 10:52:00,29.0,-2.0,-100.00,NNW,340,14.0,22.0,25,0.00,,,-99.99,,2013-04-06 14:52:00,
2013-04-06 11:02:00,29.0,-1.0,-100.00,NNW,340,10.0,23.0,25,0.00,,,-99.99,,2013-04-06 15:02:00,
2013-04-06 11:12:00,30.0,0.0,-100.00,NNW,335,10.0,21.0,26,0.00,,,-99.99,,2013-04-06 15:12:00,
2013-04-06 11:23:00,29.0,-1.0,-100.00,NNW,330,11.0,25.0,26,0.00,,,-99.99,,2013-04-06 15:23:00,
2013-04-06 11:33:00,30.0,0.0,-100.00,WNW,285,7.0,19.0,26,0.00,,,-99.99,,2013-04-06 15:33:00,
2013-04-06 11:43:00,31.0,-1.0,-100.00,North,355,10.0,24.0,24,0.00,,,-99.99,,2013-04-06 15:43:00,
2013-04-06 11:52:00,31.0,-2.0,-100.00,NNW,335,13.0,20.0,24,0.00,,,-99.99,,2013-04-06 15:52:00,
2013-04-06 12:05:00,31.0,-2.0,-100.00,NNW,345,11.0,21.0,22,0.00,,,-99.99,,2013-04-06 16:05:00,
2013-04-06 12:17:00,31.0,-2.0,-100.00,NNW,340,10.0,22.0,22,0.00,,,-99.99,,2013-04-06 16:17:00,
2013-04-06 12:23:00,32.0,-4.0,-100.00,NNW,345,9.0,21.0,21,0.00,,,-99.99,,2013-04-06 16:23:00,
2013-04-06 12:33:00,32.0,-5.0,-100.00,NNW,335,14.0,21.0,19,0.00,,,-99.99,,2013-04-06 16:33:00,
2013-04-06 12:42:00,32.0,-6.0,-100.00,NNW,335,15.0,25.0,18,0.00,,,-99.99,,2013-04-06 16:42:00,
2013-04-06 12:53:00,34.0,-4.0,-100.00,North,350,6.0,24.0,18,0.00,,,-99.99,,2013-04-06 16:53:00,
2013-04-06 13:03:00,32.0,-6.0,-100.00,NNW,330,15.0,24.0,18,0.00,,,-99.99,,2013-04-06 17:03:00,
2013-04-06 13:12:00,33.0,-5.0,-100.00,NNW,335,12.0,21.0,18,0.00,,,-99.99,,2013-04-06 17:12:00,
2013-04-06 13:22:00,35.0,-4.0,-100.00,NNW,340,7.0,17.0,18,0.00,,,-99.99,,2013-04-06 17:22:00,
2013-04-06 13:32:00,34.0,-4.0,-100.00,NW,315,7.0,14.0,18,0.00,,,-99.99,,2013-04-06 17:32:00,
2013-04-06 13:42:00,35.0,-4.0,-100.00,NNW,345,10.0,16.0,18,0.00,,,-99.99,,2013-04-06 17:42:00,
2013-04-06 13:52:00,35.0,-4.0,-100.00,NNW,345,9.0,19.0,18,0.00,,,-99.99,,2013-04-06 17:52:00,
2013-04-06 14:03:00,35.0,-3.0,-100.00,NNW,340,8.0,15.0,18,0.00,,,-99.99,,2013-04-06 18:03:00,
2013-04-06 14:12:00,37.0,-2.0,-100.00,NE,45,4.0,10.0,18,0.00,,,-99.99,,2013-04-06 18:12:00,
2013-04-06 14:23:00,36.0,-4.0,-100.00,North,0,7.0,17.0,18,0.00,,,-99.99,,2013-04-06 18:23:00,
2013-04-06 14:32:00,35.0,-3.0,-100.00,NNW,335,9.0,17.0,18,0.00,,,-99.99,,2013-04-06 18:32:00,
2013-04-06 14:42:00,37.0,-4.0,-100.00,NW,315,2.0,16.0,17,0.00,,,-99.99,,2013-04-06 18:42:00,
2013-04-06 14:52:00,36.0,-4.0,-100.00,NNW,340,9.0,17.0,17,0.00,,,-99.99,,2013-04-06 18:52:00,
2013-04-06 15:03:00,36.0,-4.0,-100.00,North,0,8.0,17.0,17,0.00,,,-99.99,,2013-04-06 19:03:00,
2013-04-06 15:12:00,36.0,-4.0,-100.00,NNW,345,8.0,19.0,17,0.00,,,-99.99,,2013-04-06 19:12:00,
2013-04-06 15:23:00,37.0,-3.0,-100.00,NNW,340,6.0,15.0,17,0.00,,,-99.99,,2013-04-06 19:23:00,
2013-04-06 15:33:00,36.0,-4.0,-100.00,NW,315,5.0,16.0,17,0.00,,,-99.99,,2013-04-06 19:33:00,
2013-04-06 15:42:00,37.0,-3.0,-100.00,NNW,340,7.0,19.0,17,0.00,,,-99.99,,2013-04-06 19:42:00,
2013-04-06 15:53:00,37.0,-4.0,-100.00,NNW,330,6.0,12.0,16,0.00,,,-99.99,,2013-04-06 19:53:00,
2013-04-06 16:03:00,37.0,-2.0,-100.00,NNW,340,6.0,17.0,18,0.00,,,-99.99,,2013-04-06 20:03:00,
2013-04-06 16:12:00,37.0,-3.0,-100.00,NNW,345,7.0,17.0,17,0.00,,,-99.99,,2013-04-06 20:12:00,
2013-04-06 16:22:00,37.0,-4.0,-100.00,NNW,345,12.0,18.0,16,0.00,,,-99.99,,2013-04-06 20:22:00,
2013-04-06 16:32:00,36.0,-3.0,-100.00,NNW,335,11.0,19.0,17,0.00,,,-99.99,,2013-04-06 20:32:00,
2013-04-06 16:42:00,37.0,-4.0,-100.00,NNW,345,8.0,14.0,16,0.00,,,-99.99,,2013-04-06 20:42:00,
2013-04-06 16:52:00,37.0,-5.0,-100.00,NNW,345,12.0,20.0,15,0.00,,,-99.99,,2013-04-06 20:52:00,
2013-04-06 17:02:00,37.0,-4.0,-100.00,NNW,340,6.0,17.0,16,0.00,,,-99.99,,2013-04-06 21:02:00,
2013-04-06 17:13:00,37.0,-1.0,-100.00,NW,325,5.0,15.0,18,0.00,,,-99.99,,2013-04-06 21:13:00,
2013-04-06 17:22:00,37.0,-4.0,-100.00,NNW,345,2.0,15.0,16,0.00,,,-99.99,,2013-04-06 21:22:00,
2013-04-06 17:33:00,37.0,-3.0,-100.00,NNW,340,6.0,11.0,17,0.00,,,-99.99,,2013-04-06 21:33:00,
2013-04-06 17:43:00,37.0,-4.0,-100.00,NNW,340,9.0,18.0,16,0.00,,,-99.99,,2013-04-06 21:43:00,
2013-04-06 17:52:00,37.0,-3.0,-100.00,NNW,340,6.0,14.0,17,0.00,,,-99.99,,2013-04-06 21:52:00,
2013-04-06 18:03:00,37.0,-5.0,-100.00,NNW,345,9.0,14.0,16,0.00,,,-99.99,,2013-04-06 22:03:00,
2013-04-06 18:13:00,37.0,-6.0,-100.00,NNW,335,7.0,12.0,15,0.00,,,-99.99,,2013-04-06 22:13:00,
2013-04-06 18:23:00,37.0,-7.0,-100.00,NNW,345,8.0,13.0,14,0.00,,,-99.99,,2013-04-06 22:23:00,
2013-04-06 18:35:00,37.0,-7.0,-100.00,NNW,345,10.0,14.0,14,0.00,,,-99.99,,2013-04-06 22:35:00,
2013-04-06 18:43:00,36.0,-2.0,-100.00,NNW,330,3.0,12.0,19,0.00,,,-99.99,,2013-04-06 22:43:00,
2013-04-06 18:53:00,36.0,-5.0,-100.00,NNW,335,4.0,11.0,16,0.00,,,-99.99,,2013-04-06 22:53:00,
2013-04-06 19:03:00,36.0,-6.0,-100.00,NNW,335,4.0,12.0,16,0.00,,,-99.99,,2013-04-06 23:03:00,
2013-04-06 19:14:00,35.0,-1.0,-100.00,North,-999,-999.0,-999.0,21,0.00,,,-99.99,,2013-04-06 23:14:00,
2013-04-06 19:23:00,34.0,1.0,-100.00,NNW,345,2.0,6.0,24,0.00,,,-99.99,,2013-04-06 23:23:00,
2013-04-06 19:34:00,33.0,2.0,-100.00,North,-999,-999.0,-999.0,25,-99.99,,,-99.99,,2013-04-06 23:34:00,
2013-04-06 19:42:00,32.0,4.0,-100.00,NNW,340,2.0,3.0,30,0.00,,,-99.99,,2013-04-06 23:42:00,
2013-04-06 19:52:00,31.0,2.0,-100.00,North,350,1.0,3.0,28,0.00,,,-99.99,,2013-04-06 23:52:00,
2013-04-06 20:02:00,30.0,11.0,-100.00,WSW,250,1.0,3.0,42,0.00,,,-99.99,,2013-04-07 00:02:00,
2013-04-06 20:13:00,30.0,5.0,-100.00,South,185,1.0,2.0,34,0.00,,,-99.99,,2013-04-07 00:13:00,
2013-04-06 20:22:00,29.0,5.0,-100.00,East,90,0.0,1.0,34,0.00,,,-99.99,,2013-04-07 00:22:00,
2013-04-06 20:33:00,28.0,5.0,-100.00,NNW,340,1.0,2.0,36,0.00,,,-99.99,,2013-04-07 00:33:00,
2013-04-06 20:43:00,28.0,5.0,-100.00,NNW,330,2.0,3.0,36,0.00,,,-99.99,,2013-04-07 00:43:00,
2013-04-06 20:52:00,27.0,4.0,-100.00,North,350,1.0,2.0,36,0.00,,,-99.99,,2013-04-07 00:52:00,
2013-04-06 21:02:00,27.0,4.0,-100.00,NW,305,0.0,2.0,36,0.00,,,-99.99,,2013-04-07 01:02:00,
2013-04-06 21:12:00,27.0,6.0,-100.00,ESE,120,1.0,1.0,39,0.00,,,-99.99,,2013-04-07 01:12:00,
2013-04-06 21:23:00,27.0,7.0,-100.00,SSE,165,1.0,2.0,42,0.00,,,-99.99,,2013-04-07 01:23:00,
2013-04-06 21:32:00,27.0,7.0,-100.00,SSE,165,1.0,2.0,42,0.00,,,-99.99,,2013-04-07 01:32:00,
2013-04-06 21:43:00,26.0,7.0,-100.00,ESE,120,1.0,1.0,42,0.00,,,-99.99,,2013-04-07 01:43:00,
2013-04-06 21:52:00,26.0,6.0,-100.00,SE,125,0.0,1.0,41,0.00,,,-99.99,,2013-04-07 01:52:00,
2013-04-06 22:03:00,26.0,6.0,-100.00,NE,45,0.0,1.0,42,0.00,,,-99.99,,2013-04-07 02:03:00,
2013-04-06 22:12:00,26.0,8.0,-100.00,North,10,1.0,1.0,45,0.00,,,-99.99,,2013-04-07 02:12:00,
2013-04-06 22:23:00,26.0,6.0,-100.00,NW,325,1.0,1.0,42,0.00,,,-99.99,,2013-04-07 02:23:00,
2013-04-06 22:32:00,25.0,8.0,-100.00,NNE,30,1.0,1.0,46,0.00,,,-99.99,,2013-04-07 02:32:00,
2013-04-06 22:43:00,25.0,7.0,-100.00,NW,315,0.0,2.0,44,0.00,,,-99.99,,2013-04-07 02:43:00,
2013-04-06 22:52:00,25.0,6.0,-100.00,NW,315,1.0,2.0,43,0.00,,,-99.99,,2013-04-07 02:52:00,
2013-04-06 23:02:00,25.0,6.0,-100.00,ENE,65,0.0,1.0,43,0.00,,,-99.99,,2013-04-07 03:02:00,
2013-04-06 23:12:00,25.0,7.0,-100.00,West,270,0.0,2.0,45,0.00,,,-99.99,,2013-04-07 03:12:00,
2013-04-06 23:22:00,25.0,9.0,-100.00,SW,230,0.0,1.0,50,0.00,,,-99.99,,2013-04-07 03:22:00,
2013-04-06 23:35:00,24.0,9.0,-100.00,SSW,200,0.0,1.0,51,0.00,,,-99.99,,2013-04-07 03:35:00,
2013-04-06 23:43:00,24.0,8.0,-100.00,SW,235,0.0,1.0,49,0.00,,,-99.99,,2013-04-07 03:43:00,
2013-04-06 23:53:00,24.0,8.0,-100.00,SE,135,1.0,1.0,49,0.00,,,-99.99,,2013-04-07 03:53:00,